Time;durP1;ratioP1;P1;durP2;ratioP2;P2;SDS_P1;SDS_P2;PMS_P1;PMS_P2;Temp;Humidity;BMP_temperature;BMP_pressure;BME280_temperature;BME280_humidity;BME280_pressure;Samples;Min_cycle;Max_cycle;Signal;HPM_P1;HPM_P2
2021/06/16 00:02:17;;;;;;;2.40;2.20;;;18.20;99.90;;;;;;5013515;28;20208;-72
2021/06/16 00:04:42;;;;;;;3.83;2.70;;;18.10;99.90;;;;;;5014381;28;20457;-73
2021/06/16 00:07:08;;;;;;;4.20;2.70;;;18.10;99.90;;;;;;5014151;28;20442;-73
2021/06/16 00:09:35;;;;;;;3.87;2.70;;;18.10;99.90;;;;;;5014343;28;20218;-74
2021/06/16 00:12:01;;;;;;;3.90;2.97;;;18.10;99.90;;;;;;5014432;28;20178;-74
2021/06/16 00:14:27;;;;;;;5.10;2.70;;;18.10;99.90;;;;;;5013962;28;20790;-72
2021/06/16 00:16:53;;;;;;;4.63;2.73;;;18.10;99.90;;;;;;5014334;28;20392;-72
2021/06/16 00:19:18;;;;;;;2.60;2.40;;;18.00;99.90;;;;;;5014415;28;20623;-72
2021/06/16 00:21:45;;;;;;;3.97;2.43;;;18.10;99.90;;;;;;5014121;28;20202;-74
2021/06/16 00:24:10;;;;;;;6.20;2.40;;;18.00;99.90;;;;;;5013897;28;20556;-72
2021/06/16 00:26:36;;;;;;;7.70;2.60;;;17.90;99.90;;;;;;5012950;28;20401;-72
2021/06/16 00:29:02;;;;;;;7.87;2.70;;;17.80;99.90;;;;;;5012863;28;20207;-72
2021/06/16 00:31:28;;;;;;;4.07;2.70;;;17.80;99.90;;;;;;5012896;28;20171;-72
2021/06/16 00:33:54;;;;;;;5.03;3.27;;;17.70;99.90;;;;;;5013484;28;20433;-72
2021/06/16 00:36:20;;;;;;;4.63;2.83;;;17.90;99.90;;;;;;5014110;28;20177;-72
2021/06/16 00:38:45;;;;;;;5.20;3.63;;;17.90;99.90;;;;;;5013883;28;20479;-72
2021/06/16 00:41:12;;;;;;;4.50;2.80;;;17.90;99.90;;;;;;5013924;28;20179;-72
2021/06/16 00:43:38;;;;;;;5.83;2.73;;;17.90;99.90;;;;;;5013497;28;20570;-73
2021/06/16 00:46:04;;;;;;;9.63;2.90;;;17.90;99.90;;;;;;5013723;28;20513;-72
2021/06/16 00:48:30;;;;;;;4.00;2.70;;;17.70;99.90;;;;;;5013668;28;20896;-72
2021/06/16 00:50:55;;;;;;;5.30;3.10;;;17.40;99.90;;;;;;5013777;28;20175;-72
2021/06/16 00:53:21;;;;;;;6.90;2.83;;;17.40;99.90;;;;;;5013323;28;20171;-72
2021/06/16 00:55:47;;;;;;;5.30;3.10;;;17.40;99.90;;;;;;5013612;28;20178;-72
2021/06/16 00:58:13;;;;;;;7.13;2.93;;;17.50;99.90;;;;;;5013643;28;20183;-72
2021/06/16 01:00:57;;;;;;;5.43;3.73;;;17.40;99.90;;;;;;5013610;28;20178;-72
2021/06/16 01:04:01;;;;;;;4.00;3.13;;;17.30;99.90;;;;;;5013225;28;20406;-73
2021/06/16 01:06:39;;;;;;;4.30;2.50;;;17.30;99.90;;;;;;5000585;28;20433;-73
2021/06/16 01:09:45;;;;;;;5.40;2.97;;;17.40;99.90;;;;;;5013906;28;20879;-73
2021/06/16 01:12:50;;;;;;;7.60;3.10;;;17.40;99.90;;;;;;5011877;28;20400;-73
2021/06/16 01:15:23;;;;;;;4.83;3.47;;;17.40;99.90;;;;;;5013548;28;20446;-73
2021/06/16 01:17:57;;;;;;;5.77;3.07;;;17.50;99.90;;;;;;5013512;28;20385;-73
2021/06/16 01:20:39;;;;;;;7.40;3.40;;;17.50;99.90;;;;;;5015618;28;20380;-73
2021/06/16 01:23:12;;;;;;;7.40;3.70;;;17.50;99.90;;;;;;5017263;28;20406;-73
2021/06/16 01:25:43;;;;;;;5.10;3.20;;;17.30;99.90;;;;;;5017401;28;20512;-72
2021/06/16 01:28:10;;;;;;;4.93;2.90;;;17.30;99.90;;;;;;5017502;28;20867;-73
2021/06/16 01:30:38;;;;;;;4.20;2.90;;;17.40;99.90;;;;;;5017578;28;20410;-73
2021/06/16 01:33:09;;;;;;;4.27;3.20;;;17.50;99.90;;;;;;5017160;28;20392;-73
2021/06/16 01:35:37;;;;;;;9.83;3.50;;;17.60;99.90;;;;;;5017171;28;20519;-73
2021/06/16 01:38:05;;;;;;;9.03;3.27;;;17.60;99.90;;;;;;5017390;28;20413;-73
2021/06/16 01:40:32;;;;;;;5.23;3.60;;;17.60;99.90;;;;;;5017240;28;20774;-73
2021/06/16 01:43:00;;;;;;;6.00;3.30;;;17.60;99.90;;;;;;5017065;28;20429;-72
2021/06/16 01:45:34;;;;;;;4.00;3.60;;;17.60;99.90;;;;;;5015836;28;21006;-73
2021/06/16 01:48:01;;;;;;;5.93;4.17;;;17.50;99.90;;;;;;5017096;28;20515;-73
2021/06/16 01:50:28;;;;;;;8.97;3.67;;;17.40;99.90;;;;;;5016812;28;20421;-73
2021/06/16 01:52:57;;;;;;;4.33;3.87;;;17.30;99.90;;;;;;5015518;28;20513;-73
2021/06/16 01:55:23;;;;;;;7.33;3.73;;;17.30;99.90;;;;;;5016810;28;20480;-73
2021/06/16 01:57:51;;;;;;;5.97;3.00;;;17.30;99.90;;;;;;5017023;28;20416;-73
2021/06/16 02:00:19;;;;;;;5.80;3.70;;;17.30;99.90;;;;;;5016969;28;20456;-76
2021/06/16 02:02:45;;;;;;;5.00;3.20;;;17.30;99.90;;;;;;5016678;28;20380;-73
2021/06/16 02:05:12;;;;;;;5.73;3.20;;;17.40;99.90;;;;;;5016780;28;20440;-73
2021/06/16 02:07:45;;;;;;;9.07;3.80;;;17.40;99.90;;;;;;5016717;28;20457;-74
2021/06/16 02:10:13;;;;;;;9.10;3.40;;;17.40;99.90;;;;;;5016955;28;20548;-73
2021/06/16 02:12:40;;;;;;;4.33;3.10;;;17.30;99.90;;;;;;5016437;28;20437;-73
2021/06/16 02:15:10;;;;;;;4.23;2.83;;;17.20;99.90;;;;;;5016215;28;20440;-73
2021/06/16 02:17:38;;;;;;;8.03;3.47;;;17.30;99.90;;;;;;5016311;28;20839;-73
2021/06/16 02:20:05;;;;;;;3.23;2.80;;;17.10;99.90;;;;;;5016765;28;20406;-73
2021/06/16 02:22:31;;;;;;;5.20;3.10;;;17.10;99.90;;;;;;5016693;28;20430;-73
2021/06/16 02:24:57;;;;;;;5.70;2.73;;;17.10;99.90;;;;;;5016187;28;20433;-73
2021/06/16 02:27:23;;;;;;;5.10;3.00;;;17.10;99.90;;;;;;5016502;28;20538;-73
2021/06/16 02:29:49;;;;;;;7.07;3.40;;;17.10;99.90;;;;;;5016477;28;20396;-72
2021/06/16 02:32:15;;;;;;;5.70;3.43;;;17.00;99.90;;;;;;5015961;28;20491;-73
2021/06/16 02:34:41;;;;;;;7.10;3.00;;;17.00;99.90;;;;;;5015657;28;20214;-73
2021/06/16 02:37:10;;;;;;;5.17;3.03;;;17.00;99.90;;;;;;5015004;28;20639;-73
2021/06/16 02:39:40;;;;;;;6.90;3.30;;;17.10;99.90;;;;;;5016087;28;20189;-73
2021/06/16 02:42:07;;;;;;;5.40;2.60;;;17.20;99.90;;;;;;5015977;28;20422;-73
2021/06/16 02:44:34;;;;;;;3.53;2.90;;;17.10;99.90;;;;;;5015556;28;20460;-73
2021/06/16 02:47:01;;;;;;;5.03;2.53;;;17.00;99.90;;;;;;5015854;28;20388;-74
2021/06/16 02:49:33;;;;;;;3.60;3.00;;;17.10;99.90;;;;;;5015762;28;20469;-74
2021/06/16 02:52:01;;;;;;;5.37;2.77;;;17.00;99.90;;;;;;5015834;28;20399;-73
2021/06/16 02:54:30;;;;;;;6.27;2.97;;;17.00;99.90;;;;;;5015373;28;20438;-73
2021/06/16 02:57:01;;;;;;;5.60;2.93;;;17.00;99.90;;;;;;5015679;28;20395;-73
2021/06/16 02:59:29;;;;;;;6.23;3.70;;;17.00;99.90;;;;;;5015790;28;20406;-73
2021/06/16 03:01:55;;;;;;;7.00;3.40;;;17.00;99.90;;;;;;5015857;28;20457;-73
2021/06/16 03:04:22;;;;;;;4.87;3.20;;;16.80;99.90;;;;;;5015322;28;20486;-73
2021/06/16 03:06:50;;;;;;;10.80;2.83;;;16.60;99.90;;;;;;5015408;28;20189;-73
2021/06/16 03:09:19;;;;;;;4.90;3.30;;;16.60;99.90;;;;;;5015663;28;20560;-73
2021/06/16 03:11:45;;;;;;;4.50;3.20;;;16.60;99.90;;;;;;5015482;28;20423;-73
2021/06/16 03:14:12;;;;;;;5.67;3.23;;;16.70;99.90;;;;;;5015239;28;20512;-73
2021/06/16 03:16:37;;;;;;;5.20;3.00;;;16.60;99.90;;;;;;5015394;28;20852;-73
2021/06/16 03:19:06;;;;;;;4.80;3.03;;;16.60;99.90;;;;;;5015250;28;20483;-74
2021/06/16 03:21:34;;;;;;;7.03;3.77;;;16.60;99.90;;;;;;5015435;28;20242;-73
2021/06/16 03:24:00;;;;;;;14.60;3.83;;;16.60;99.90;;;;;;5014906;28;20810;-73
2021/06/16 03:26:27;;;;;;;5.10;3.03;;;16.60;99.90;;;;;;5015279;28;20393;-73
2021/06/16 03:28:54;;;;;;;6.73;3.57;;;16.50;99.90;;;;;;5015134;28;20490;-74
2021/06/16 03:31:20;;;;;;;5.60;3.90;;;16.50;99.90;;;;;;5014999;28;20384;-72
2021/06/16 03:33:48;;;;;;;9.93;3.50;;;16.40;99.90;;;;;;5014737;28;20825;-73
2021/06/16 03:36:15;;;;;;;7.00;3.07;;;16.40;99.90;;;;;;5015175;28;20821;-73
2021/06/16 03:38:42;;;;;;;7.60;3.10;;;16.40;99.90;;;;;;5015097;28;20493;-73
2021/06/16 03:41:09;;;;;;;4.60;3.07;;;16.40;99.90;;;;;;5014788;28;20818;-73
2021/06/16 03:43:36;;;;;;;8.60;3.50;;;16.50;99.90;;;;;;5013777;28;20445;-72
2021/06/16 03:46:06;;;;;;;4.90;3.37;;;16.50;99.90;;;;;;5014884;28;20396;-72
2021/06/16 03:48:34;;;;;;;7.90;3.97;;;16.50;99.90;;;;;;5014792;28;20436;-72
2021/06/16 03:51:00;;;;;;;7.97;3.80;;;16.40;99.90;;;;;;5014753;28;20414;-72
2021/06/16 03:53:27;;;;;;;9.73;4.40;;;16.50;99.90;;;;;;5014086;28;20414;-72
2021/06/16 03:55:55;;;;;;;6.03;3.40;;;16.50;99.90;;;;;;5014670;28;20376;-72
2021/06/16 03:58:21;;;;;;;7.97;4.33;;;16.50;99.90;;;;;;5014628;28;20762;-73
2021/06/16 04:00:48;;;;;;;5.43;3.13;;;16.50;99.90;;;;;;5013472;28;20483;-72
2021/06/16 04:03:14;;;;;;;9.60;3.60;;;16.50;99.90;;;;;;5014496;28;20388;-72
2021/06/16 04:05:40;;;;;;;10.10;3.53;;;16.50;99.90;;;;;;5014364;28;20388;-72
2021/06/16 04:08:07;;;;;;;6.30;4.23;;;16.60;99.90;;;;;;5014666;28;20549;-72
2021/06/16 04:10:34;;;;;;;6.30;4.07;;;16.60;99.90;;;;;;5014624;28;20181;-72
2021/06/16 04:13:02;;;;;;;4.90;3.70;;;16.60;99.90;;;;;;5012803;28;20433;-72
2021/06/16 04:15:28;;;;;;;6.17;3.83;;;16.60;99.90;;;;;;5014180;28;20433;-73
2021/06/16 04:17:58;;;;;;;6.47;3.50;;;16.50;99.90;;;;;;5013011;28;20404;-73
2021/06/16 04:20:23;;;;;;;5.23;3.90;;;16.50;99.90;;;;;;5014216;28;20430;-75
2021/06/16 04:22:49;;;;;;;5.80;4.10;;;16.40;99.90;;;;;;5013985;28;20430;-73
2021/06/16 04:25:14;;;;;;;9.17;5.47;;;16.50;99.90;;;;;;5014273;28;20593;-73
2021/06/16 04:27:40;;;;;;;5.50;3.63;;;16.60;99.90;;;;;;5014071;28;20187;-73
2021/06/16 04:30:09;;;;;;;4.40;3.93;;;16.70;99.90;;;;;;5014120;28;20193;-72
2021/06/16 04:32:36;;;;;;;4.93;3.70;;;16.80;99.90;;;;;;5013802;28;20187;-73
2021/06/16 04:35:03;;;;;;;5.07;4.53;;;16.90;99.90;;;;;;5013149;28;20463;-73
2021/06/16 04:37:28;;;;;;;7.40;3.97;;;17.00;99.90;;;;;;5013480;28;20771;-73
2021/06/16 04:39:54;;;;;;;6.23;3.80;;;17.10;99.90;;;;;;5013452;28;20410;-72
2021/06/16 04:42:19;;;;;;;7.03;4.40;;;17.10;99.90;;;;;;5013469;28;20229;-72
2021/06/16 04:44:45;;;;;;;6.33;4.17;;;17.20;99.90;;;;;;5013141;28;20201;-73
2021/06/16 04:47:11;;;;;;;6.27;4.80;;;17.40;99.90;;;;;;5014466;28;20183;-73
2021/06/16 04:49:37;;;;;;;5.37;3.80;;;17.40;99.90;;;;;;5013684;28;20967;-73
2021/06/16 04:52:03;;;;;;;7.00;4.10;;;17.40;99.90;;;;;;5013763;28;20659;-73
2021/06/16 04:54:28;;;;;;;9.40;5.23;;;17.40;99.90;;;;;;5013247;28;20408;-73
2021/06/16 04:56:55;;;;;;;8.40;3.73;;;17.40;99.90;;;;;;5013678;28;20175;-73
2021/06/16 04:59:21;;;;;;;6.70;5.23;;;17.50;99.90;;;;;;5013645;28;20229;-73
2021/06/16 05:01:48;;;;;;;6.77;5.80;;;17.50;99.90;;;;;;5013051;28;20433;-73
2021/06/16 05:04:13;;;;;;;8.13;6.40;;;17.60;99.90;;;;;;5013140;28;20195;-73
2021/06/16 05:06:39;;;;;;;6.17;5.60;;;17.70;99.90;;;;;;5013646;28;20424;-73
2021/06/16 05:09:04;;;;;;;9.70;5.70;;;17.80;99.90;;;;;;5013600;28;20219;-73
2021/06/16 05:11:30;;;;;;;6.77;5.37;;;17.90;99.90;;;;;;5013529;28;20201;-72
2021/06/16 05:13:56;;;;;;;13.47;5.23;;;17.90;99.90;;;;;;5012953;28;20199;-73
2021/06/16 05:16:21;;;;;;;11.03;5.30;;;18.00;99.90;;;;;;5013798;28;20183;-72
2021/06/16 05:18:48;;;;;;;4.73;4.23;;;18.10;99.90;;;;;;5013632;28;20178;-73
2021/06/16 05:21:14;;;;;;;5.10;4.57;;;18.10;99.90;;;;;;5013517;28;20173;-72
2021/06/16 05:23:41;;;;;;;7.03;4.67;;;18.10;99.90;;;;;;5012848;28;20456;-72
2021/06/16 05:26:06;;;;;;;7.93;5.13;;;18.20;99.90;;;;;;5013235;28;20429;-74
2021/06/16 05:28:32;;;;;;;8.13;5.73;;;18.30;99.90;;;;;;5013434;28;20531;-75
2021/06/16 05:30:57;;;;;;;10.77;5.67;;;18.40;99.90;;;;;;5013453;28;20206;-75
2021/06/16 05:33:23;;;;;;;5.40;4.70;;;18.50;99.90;;;;;;5013107;28;20175;-75
2021/06/16 05:35:49;;;;;;;17.60;5.23;;;18.60;99.90;;;;;;5011807;28;20198;-74
2021/06/16 05:38:14;;;;;;;10.57;5.03;;;18.50;99.90;;;;;;5013215;28;20195;-76
2021/06/16 05:40:42;;;;;;;6.97;5.03;;;18.40;99.90;;;;;;5013412;28;20175;-75
2021/06/16 05:43:07;;;;;;;7.57;5.00;;;18.40;99.90;;;;;;5012953;28;20758;-75
2021/06/16 05:45:33;;;;;;;13.23;5.43;;;18.20;99.90;;;;;;5011870;28;20541;-74
2021/06/16 05:47:58;;;;;;;5.60;4.97;;;18.20;99.90;;;;;;5013053;28;20206;-74
2021/06/16 05:50:24;;;;;;;9.80;4.67;;;18.40;99.90;;;;;;5013011;28;20325;-74
2021/06/16 05:52:50;;;;;;;9.30;5.77;;;18.60;99.90;;;;;;5012702;28;20183;-76
2021/06/16 05:55:15;;;;;;;11.00;5.30;;;18.80;99.90;;;;;;5012857;28;20199;-75
2021/06/16 05:57:42;;;;;;;7.90;5.67;;;18.90;99.90;;;;;;5012912;28;20225;-75
2021/06/16 06:00:09;;;;;;;8.90;6.47;;;19.10;99.90;;;;;;5013063;28;20260;-76
2021/06/16 06:02:35;;;;;;;12.80;7.93;;;19.20;99.90;;;;;;5012388;28;20406;-77
2021/06/16 06:05:01;;;;;;;9.97;6.63;;;19.20;99.90;;;;;;5011404;28;20976;-76
2021/06/16 06:07:26;;;;;;;9.40;5.93;;;19.20;99.90;;;;;;5016274;28;20953;-75
2021/06/16 06:09:52;;;;;;;11.40;6.83;;;19.30;99.90;;;;;;5016880;28;20179;-75
2021/06/16 06:12:18;;;;;;;10.40;7.17;;;19.50;99.90;;;;;;5016835;28;20179;-76
2021/06/16 06:14:43;;;;;;;12.63;7.33;;;19.70;99.90;;;;;;5016206;28;20199;-76
2021/06/16 06:17:09;;;;;;;11.47;7.97;;;19.70;99.90;;;;;;5016480;28;20174;-75
2021/06/16 06:19:34;;;;;;;10.77;6.30;;;19.80;99.90;;;;;;5016569;28;20615;-75
2021/06/16 06:22:00;;;;;;;15.70;6.80;;;19.90;99.90;;;;;;5016586;28;20186;-76
2021/06/16 06:24:26;;;;;;;12.63;6.80;;;20.00;99.90;;;;;;5015995;28;20690;-77
2021/06/16 06:26:51;;;;;;;17.13;8.97;;;20.00;99.90;;;;;;5015101;28;20186;-75
2021/06/16 06:29:17;;;;;;;14.97;8.33;;;20.20;99.90;;;;;;5016387;28;20198;-76
2021/06/16 06:31:43;;;;;;;10.70;7.63;;;20.20;99.90;;;;;;5016460;28;20182;-76
2021/06/16 06:34:08;;;;;;;18.47;11.33;;;20.30;99.90;;;;;;5015630;28;20199;-75
2021/06/16 06:36:34;;;;;;;17.33;9.43;;;20.50;99.90;;;;;;5016004;28;20182;-75
2021/06/16 06:38:59;;;;;;;11.60;7.60;;;20.70;99.90;;;;;;5016238;28;20183;-75
2021/06/16 06:41:25;;;;;;;14.60;7.53;;;20.90;99.90;;;;;;5016182;28;20197;-76
2021/06/16 06:43:51;;;;;;;14.27;7.17;;;20.90;99.90;;;;;;5015808;28;20198;-76
2021/06/16 06:46:17;;;;;;;13.00;7.40;;;21.00;99.90;;;;;;5016070;28;20468;-76
2021/06/16 06:48:42;;;;;;;15.20;7.50;;;21.20;99.90;;;;;;5015870;28;20214;-76
2021/06/16 06:51:09;;;;;;;8.07;7.10;;;21.30;99.90;;;;;;5015886;28;20187;-76
2021/06/16 06:53:34;;;;;;;10.63;6.33;;;21.40;99.90;;;;;;5015467;28;20210;-76
2021/06/16 06:56:00;;;;;;;11.00;7.53;;;21.40;99.90;;;;;;5015755;28;20422;-76
2021/06/16 06:58:26;;;;;;;12.50;8.50;;;21.60;99.90;;;;;;5015720;28;20175;-76
2021/06/16 07:00:52;;;;;;;14.33;8.63;;;21.70;99.90;;;;;;5015546;28;20425;-76
2021/06/16 07:03:18;;;;;;;11.27;8.03;;;21.70;99.90;;;;;;5015175;28;20268;-76
2021/06/16 07:05:44;;;;;;;15.57;6.97;;;21.80;99.90;;;;;;5015402;28;20441;-76
2021/06/16 07:08:09;;;;;;;11.27;8.47;;;22.00;99.90;;;;;;5015473;28;20214;-75
2021/06/16 07:10:35;;;;;;;17.47;8.03;;;22.20;99.90;;;;;;5015545;28;20995;-76
2021/06/16 07:13:03;;;;;;;9.60;6.70;;;22.30;99.90;;;;;;5015200;28;20175;-76
2021/06/16 07:15:29;;;;;;;16.27;8.13;;;22.40;99.90;;;;;;5015349;28;20429;-77
2021/06/16 07:17:55;;;;;;;13.13;8.53;;;22.40;99.90;;;;;;5014435;28;20410;-77
2021/06/16 07:20:21;;;;;;;9.23;8.23;;;22.10;99.90;;;;;;5015389;28;20500;-78
2021/06/16 07:22:47;;;;;;;13.60;10.53;;;22.20;99.90;;;;;;5013992;28;20182;-77
2021/06/16 07:25:14;;;;;;;12.70;10.60;;;22.30;99.90;;;;;;5015185;28;20678;-77
2021/06/16 07:27:40;;;;;;;10.57;8.80;;;22.20;99.90;;;;;;5015116;28;20854;-77
2021/06/16 07:30:07;;;;;;;12.60;8.47;;;22.30;99.90;;;;;;5015236;28;20388;-77
2021/06/16 07:32:35;;;;;;;13.20;10.63;;;22.60;99.90;;;;;;5013905;28;20420;-78
2021/06/16 07:35:01;;;;;;;14.53;9.80;;;22.60;99.90;;;;;;5014705;28;20860;-77
2021/06/16 07:37:27;;;;;;;19.37;10.60;;;22.50;99.90;;;;;;5015204;28;20414;-76
2021/06/16 07:39:54;;;;;;;19.57;9.50;;;22.50;99.90;;;;;;5015088;28;20179;-76
2021/06/16 07:42:21;;;;;;;18.60;9.93;;;22.70;99.90;;;;;;5013729;28;20449;-77
2021/06/16 07:44:46;;;;;;;14.87;9.30;;;23.10;99.90;;;;;;5013236;28;20496;-78
2021/06/16 07:47:12;;;;;;;10.60;8.57;;;23.30;99.90;;;;;;5014822;28;20449;-76
2021/06/16 07:49:38;;;;;;;11.13;8.53;;;23.40;99.90;;;;;;5014782;28;20237;-77
2021/06/16 07:52:04;;;;;;;13.13;8.47;;;23.50;99.90;;;;;;5014935;28;20171;-77
2021/06/16 07:54:30;;;;;;;15.70;8.83;;;23.70;99.90;;;;;;5014195;28;20194;-78
2021/06/16 07:56:55;;;;;;;17.90;9.73;;;23.80;99.90;;;;;;5013401;28;20418;-77
2021/06/16 07:59:21;;;;;;;16.53;8.80;;;24.00;99.90;;;;;;5014638;28;20453;-77
2021/06/16 08:01:48;;;;;;;12.07;8.67;;;24.00;99.90;;;;;;5014608;28;20189;-78
2021/06/16 08:04:14;;;;;;;15.77;9.27;;;24.10;99.90;;;;;;5014979;28;20202;-76
2021/06/16 08:06:40;;;;;;;9.63;8.13;;;24.30;99.90;;;;;;5015592;28;20418;-77
2021/06/16 08:09:06;;;;;;;11.30;7.17;;;24.30;99.90;;;;;;5013155;28;20458;-77
2021/06/16 08:11:32;;;;;;;8.60;6.90;;;24.40;99.90;;;;;;5014422;28;20179;-77
2021/06/16 08:13:58;;;;;;;11.20;7.37;;;24.70;99.90;;;;;;5014014;28;20461;-77
2021/06/16 08:16:24;;;;;;;8.43;6.20;;;24.40;99.90;;;;;;5014457;28;20497;-77
2021/06/16 08:18:50;;;;;;;10.73;7.17;;;24.40;99.90;;;;;;5014296;28;20189;-77
2021/06/16 08:21:17;;;;;;;6.93;6.33;;;24.40;99.90;;;;;;5013073;28;20278;-77
2021/06/16 08:23:44;;;;;;;10.53;6.80;;;24.50;99.90;;;;;;5014117;28;20491;-77
2021/06/16 08:26:10;;;;;;;7.63;6.50;;;24.80;99.90;;;;;;5014188;28;20417;-77
2021/06/16 08:28:36;;;;;;;8.17;6.27;;;24.80;99.90;;;;;;5013856;28;20988;-77
2021/06/16 08:31:02;;;;;;;11.53;6.23;;;24.80;99.90;;;;;;5014142;28;20406;-77
2021/06/16 08:33:27;;;;;;;11.77;5.57;;;24.70;99.90;;;;;;5013586;28;20418;-78
2021/06/16 08:35:53;;;;;;;6.57;5.90;;;24.70;99.90;;;;;;5012821;28;20337;-77
2021/06/16 08:38:19;;;;;;;6.10;5.50;;;24.80;99.90;;;;;;5014225;28;20202;-76
2021/06/16 08:40:44;;;;;;;12.47;7.23;;;25.10;99.90;;;;;;5013985;28;20258;-78
2021/06/16 08:43:13;;;;;;;9.90;5.83;;;25.40;99.90;;;;;;5013740;28;20183;-77
2021/06/16 08:45:39;;;;;;;8.73;5.17;;;25.50;99.90;;;;;;5013753;28;20214;-77
2021/06/16 08:48:06;;;;;;;5.20;4.80;;;25.70;99.90;;;;;;5013715;28;20456;-78
2021/06/16 08:50:32;;;;;;;5.90;4.90;;;26.00;99.90;;;;;;5013834;28;20489;-78
2021/06/16 08:52:57;;;;;;;9.90;4.90;;;26.00;99.90;;;;;;5013403;28;20430;-77
2021/06/16 08:55:23;;;;;;;8.23;5.53;;;26.20;99.90;;;;;;5013549;28;20663;-77
2021/06/16 08:57:49;;;;;;;5.37;4.77;;;26.30;99.90;;;;;;5013724;28;20241;-78
2021/06/16 09:00:17;;;;;;;5.80;5.20;;;26.30;99.90;;;;;;5012335;28;20236;-77
2021/06/16 09:02:44;;;;;;;7.97;5.33;;;26.00;99.90;;;;;;5013246;28;20450;-78
2021/06/16 09:05:10;;;;;;;7.10;5.97;;;26.00;99.90;;;;;;5013401;28;20436;-77
2021/06/16 09:07:40;;;;;;;9.50;5.33;;;26.00;99.90;;;;;;5012244;28;20829;-77
2021/06/16 09:10:15;;;;;;;9.17;5.77;;;26.10;99.90;;;;;;5013563;28;20493;-77
2021/06/16 09:12:52;;;;;;;6.73;5.17;;;26.40;99.90;;;;;;5012186;28;20467;-77
2021/06/16 09:15:20;;;;;;;6.83;5.70;;;26.70;99.90;;;;;;5012255;28;20453;-77
2021/06/16 09:18:05;;;;;;;11.10;6.33;;;26.60;99.90;;;;;;5013344;28;20417;-77
2021/06/16 09:20:45;;;;;;;8.60;5.40;;;26.60;99.90;;;;;;5013552;28;20823;-78
2021/06/16 09:23:20;;;;;;;5.60;4.90;;;26.50;99.90;;;;;;5013442;28;20906;-77
2021/06/16 09:26:14;;;;;;;7.60;5.80;;;27.10;99.90;;;;;;5013329;28;21015;-77
2021/06/16 09:28:44;;;;;;;6.30;5.67;;;27.50;99.90;;;;;;5013553;28;20465;-78
2021/06/16 09:31:13;;;;;;;7.07;5.03;;;27.90;99.90;;;;;;5013700;28;20926;-78
2021/06/16 09:33:40;;;;;;;7.07;5.20;;;28.10;99.90;;;;;;5012996;28;20525;-78
2021/06/16 09:36:13;;;;;;;5.83;5.33;;;28.20;99.90;;;;;;5013290;28;20948;-78
2021/06/16 09:38:41;;;;;;;6.40;4.80;;;28.30;99.90;;;;;;5013424;28;20779;-77
2021/06/16 09:41:11;;;;;;;6.80;5.20;;;28.60;99.90;;;;;;5015010;28;20452;-77
2021/06/16 09:43:38;;;;;;;5.40;4.90;;;28.80;99.90;;;;;;5016900;28;20504;-78
2021/06/16 09:46:07;;;;;;;7.53;5.00;;;28.90;99.90;;;;;;5017032;28;20409;-77
2021/06/16 09:48:37;;;;;;;6.20;4.93;;;28.80;99.90;;;;;;5017182;28;20449;-77
2021/06/16 09:51:25;;;;;;;7.47;5.10;;;29.30;99.90;;;;;;5017022;28;20428;-78
2021/06/16 09:54:15;;;;;;;5.43;4.93;;;29.50;99.90;;;;;;5016564;28;20445;-78
2021/06/16 09:56:43;;;;;;;8.43;5.60;;;30.20;99.90;;;;;;5016870;28;20500;-76
2021/06/16 09:59:11;;;;;;;7.40;5.83;;;29.70;99.90;;;;;;5016630;28;20439;-76
2021/06/16 10:01:45;;;;;;;6.03;4.90;;;29.40;99.90;;;;;;5016132;28;20504;-77
2021/06/16 10:04:29;;;;;;;5.33;4.47;;;29.20;99.90;;;;;;5015732;28;20488;-76
2021/06/16 10:07:22;;;;;;;5.20;4.70;;;29.80;99.90;;;;;;5016665;28;20492;-77
2021/06/16 10:09:58;;;;;;;5.40;4.90;;;29.70;99.90;;;;;;5016475;28;20457;-75
2021/06/16 10:12:27;;;;;;;5.77;4.57;;;29.60;99.90;;;;;;5012342;28;20452;-76
2021/06/16 10:14:56;;;;;;;6.00;5.23;;;29.70;99.90;;;;;;5011666;28;20841;-75
2021/06/16 10:17:21;;;;;;;5.33;4.83;;;29.60;99.90;;;;;;5014645;28;20565;-75
2021/06/16 10:19:51;;;;;;;12.53;5.13;;;30.00;99.90;;;;;;5014627;28;20510;-76
2021/06/16 10:22:17;;;;;;;6.47;4.87;;;30.80;99.90;;;;;;5014393;28;20226;-75
2021/06/16 10:24:43;;;;;;;6.70;5.10;;;31.10;99.90;;;;;;5014709;28;20441;-75
2021/06/16 10:27:15;;;;;;;6.40;4.57;;;31.30;99.90;;;;;;5013980;28;21324;-78
2021/06/16 10:29:43;;;;;;;5.23;4.73;;;31.20;99.90;;;;;;5014958;28;20236;-75
2021/06/16 10:32:11;;;;;;;5.63;4.97;;;31.40;99.90;;;;;;5014518;28;20413;-75
2021/06/16 10:34:52;;;;;;;7.23;4.90;;;30.70;99.90;;;;;;5013325;28;20472;-75
2021/06/16 10:37:29;;;;;;;6.50;5.00;;;31.00;99.90;;;;;;5013242;28;20508;-75
2021/06/16 10:40:18;;;;;;;5.90;4.37;;;31.60;99.90;;;;;;5013329;28;20826;-75
2021/06/16 10:43:03;;;;;;;6.10;4.23;;;32.40;99.90;;;;;;5006033;28;20441;-77
2021/06/16 10:45:32;;;;;;;4.50;4.10;;;32.30;99.90;;;;;;5013028;28;20436;-75
2021/06/16 10:48:05;;;;;;;5.47;4.97;;;32.00;99.90;;;;;;5013354;28;20457;-77
2021/06/16 10:50:47;;;;;;;6.87;4.63;;;32.40;99.90;;;;;;5012568;28;20779;-76
2021/06/16 10:53:19;;;;;;;5.60;4.20;;;32.70;99.90;;;;;;5012004;28;20413;-76
2021/06/16 10:55:54;;;;;;;7.90;5.93;;;32.80;99.90;;;;;;5013546;28;20414;-76
2021/06/16 10:58:30;;;;;;;5.90;4.13;;;33.40;99.90;;;;;;5012220;28;20417;-76
2021/06/16 11:01:19;;;;;;;5.23;4.73;;;33.60;99.90;;;;;;5013348;28;20416;-75
2021/06/16 11:03:51;;;;;;;4.77;4.27;;;33.80;99.90;;;;;;5012890;28;20855;-75
2021/06/16 11:06:32;;;;;;;4.63;4.23;;;34.30;99.90;;;;;;5012270;28;20422;-78
2021/06/16 11:09:13;;;;;;;4.10;3.70;;;34.50;99.90;;;;;;5013400;28;20906;-75
2021/06/16 11:11:51;;;;;;;6.13;4.30;;;34.60;99.90;;;;;;5012344;28;20420;-77
2021/06/16 11:14:39;;;;;;;6.10;4.50;;;34.70;99.90;;;;;;5001943;28;20524;-77
2021/06/16 11:17:05;;;;;;;7.00;4.20;;;35.00;99.90;;;;;;4993911;28;20415;-75
2021/06/16 11:19:37;;;;;;;6.40;4.97;;;35.10;99.90;;;;;;4992611;28;20430;-75
2021/06/16 11:22:14;;;;;;;7.17;4.63;;;35.40;99.90;;;;;;4993791;28;20454;-76
2021/06/16 11:25:05;;;;;;;5.30;4.80;;;35.20;99.90;;;;;;4992779;28;20477;-75
2021/06/16 11:28:11;;;;;;;9.53;4.40;;;35.50;99.90;;;;;;4992821;28;20460;-77
2021/06/16 11:30:41;;;;;;;4.70;4.30;;;35.40;99.90;;;;;;4992258;28;20473;-77
2021/06/16 11:33:16;;;;;;;4.37;3.97;;;36.00;99.90;;;;;;4992539;28;20919;-77
2021/06/16 11:35:51;;;;;;;4.57;4.27;;;36.30;99.90;;;;;;4992755;28;68034;-82
2021/06/16 11:38:17;;;;;;;3.93;3.63;;;36.10;99.90;;;;;;4994222;28;20472;-76
2021/06/16 11:41:17;;;;;;;4.43;3.77;;;36.60;99.90;;;;;;4994461;28;20430;-76
2021/06/16 11:43:46;;;;;;;5.40;4.27;;;36.90;99.90;;;;;;4994066;28;20191;-77
2021/06/16 11:46:15;;;;;;;4.50;3.70;;;36.90;99.90;;;;;;4993633;28;20735;-76
2021/06/16 11:48:44;;;;;;;4.37;3.97;;;36.30;99.90;;;;;;4993315;28;20483;-76
2021/06/16 11:51:10;;;;;;;4.97;4.00;;;36.20;99.90;;;;;;4993627;28;20423;-76
2021/06/16 11:53:38;;;;;;;5.00;4.50;;;36.60;99.90;;;;;;4992305;28;20505;-76
2021/06/16 11:56:09;;;;;;;4.87;3.90;;;37.10;99.90;;;;;;4992844;28;20453;-75
2021/06/16 11:58:40;;;;;;;5.10;4.00;;;36.20;99.80;;;;;;4993822;28;20450;-78
2021/06/16 12:01:17;;;;;;;4.90;3.60;;;35.30;99.90;;;;;;4993316;28;20834;-77
2021/06/16 12:03:57;;;;;;;4.47;4.07;;;35.40;99.90;;;;;;4992232;28;20441;-75
2021/06/16 12:06:23;;;;;;;5.07;4.47;;;35.50;99.90;;;;;;4993631;28;20792;-77
2021/06/16 12:08:56;;;;;;;5.43;3.47;;;37.20;99.30;;;;;;4992939;28;20543;-78
2021/06/16 12:11:28;;;;;;;4.93;3.83;;;37.90;99.00;;;;;;4992921;28;20423;-76
2021/06/16 12:13:58;;;;;;;4.00;3.70;;;38.30;97.70;;;;;;4994785;28;20450;-78
2021/06/16 12:16:25;;;;;;;4.87;4.37;;;37.70;99.00;;;;;;5005569;28;20425;-78
2021/06/16 12:18:51;;;;;;;8.33;3.50;;;38.10;97.10;;;;;;5011955;28;20846;-77
2021/06/16 12:21:16;;;;;;;6.23;4.30;;;39.00;96.50;;;;;;5011796;28;20429;-77
2021/06/16 12:23:43;;;;;;;5.07;3.83;;;38.90;94.90;;;;;;5012031;28;20286;-76
2021/06/16 12:26:14;;;;;;;4.63;3.73;;;38.30;94.00;;;;;;5012321;28;20198;-77
2021/06/16 12:28:43;;;;;;;4.90;4.07;;;38.20;94.20;;;;;;5012360;28;21053;-76
2021/06/16 12:31:13;;;;;;;3.50;3.20;;;38.40;92.60;;;;;;5012548;28;20456;-78
2021/06/16 12:34:01;;;;;;;5.13;3.83;;;38.80;92.30;;;;;;5011509;28;20437;-76
2021/06/16 12:36:32;;;;;;;5.67;4.13;;;39.20;92.30;;;;;;5012536;28;20428;-77
2021/06/16 12:39:13;;;;;;;5.07;3.97;;;38.80;90.30;;;;;;5012347;28;20422;-76
2021/06/16 12:41:53;;;;;;;3.37;3.07;;;39.10;90.90;;;;;;5011454;28;20851;-77
2021/06/16 12:44:35;;;;;;;4.27;3.40;;;39.80;83.20;;;;;;5012181;28;20444;-77
2021/06/16 12:47:02;;;;;;;4.30;3.10;;;39.80;79.00;;;;;;5011908;28;21012;-77
2021/06/16 12:49:39;;;;;;;5.10;2.90;;;38.90;82.30;;;;;;5011538;28;20507;-77
2021/06/16 12:52:06;;;;;;;6.23;4.03;;;38.10;81.80;;;;;;5012004;28;20429;-77
2021/06/16 12:54:35;;;;;;;7.97;4.17;;;37.40;85.70;;;;;;5011743;28;20434;-77
2021/06/16 12:57:18;;;;;;;7.23;3.43;;;38.90;83.90;;;;;;5011308;28;20422;-77